sensor_id;sensor_type;location;lat;lon;timestamp;P1;durP1;ratioP1;P2;durP2;ratioP2
2211;SDS011;48849;48.758;9.158;2023-01-15T00:01:17;1.00;;;0.90;;
2211;SDS011;48849;48.758;9.158;2023-01-15T00:03:47;2.53;;;1.20;;
2211;SDS011;48849;48.758;9.158;2023-01-15T00:06:14;0.75;;;0.75;;
2211;SDS011;48849;48.758;9.158;2023-01-15T00:08:41;1.35;;;1.25;;
2211;SDS011;48849;48.758;9.158;2023-01-15T00:11:08;1.10;;;1.00;;
2211;SDS011;48849;48.758;9.158;2023-01-15T00:13:35;1.60;;;1.00;;
2211;SDS011;48849;48.758;9.158;2023-01-15T00:16:02;0.70;;;0.70;;
2211;SDS011;48849;48.758;9.158;2023-01-15T00:18:29;0.60;;;0.60;;
2211;SDS011;48849;48.758;9.158;2023-01-15T00:21:01;1.60;;;0.85;;
2211;SDS011;48849;48.758;9.158;2023-01-15T00:23:29;1.88;;;0.75;;
2211;SDS011;48849;48.758;9.158;2023-01-15T00:26:14;0.80;;;0.63;;
2211;SDS011;48849;48.758;9.158;2023-01-15T00:29:00;1.15;;;0.80;;
2211;SDS011;48849;48.758;9.158;2023-01-15T00:31:27;0.95;;;0.73;;
2211;SDS011;48849;48.758;9.158;2023-01-15T00:33:54;0.82;;;0.80;;
2211;SDS011;48849;48.758;9.158;2023-01-15T00:36:23;1.00;;;0.77;;
2211;SDS011;48849;48.758;9.158;2023-01-15T00:38:49;2.50;;;0.80;;
2211;SDS011;48849;48.758;9.158;2023-01-15T00:41:16;0.80;;;0.80;;
2211;SDS011;48849;48.758;9.158;2023-01-15T00:43:43;0.82;;;0.80;;
2211;SDS011;48849;48.758;9.158;2023-01-15T00:46:10;1.20;;;0.90;;
2211;SDS011;48849;48.758;9.158;2023-01-15T00:48:36;0.60;;;0.60;;
2211;SDS011;48849;48.758;9.158;2023-01-15T00:51:03;1.50;;;1.13;;
2211;SDS011;48849;48.758;9.158;2023-01-15T00:53:32;1.60;;;1.38;;
2211;SDS011;48849;48.758;9.158;2023-01-15T00:55:58;1.35;;;1.10;;
2211;SDS011;48849;48.758;9.158;2023-01-15T00:58:25;2.00;;;1.20;;
2211;SDS011;48849;48.758;9.158;2023-01-15T01:00:52;2.15;;;1.20;;
2211;SDS011;48849;48.758;9.158;2023-01-15T01:03:20;2.88;;;0.90;;
2211;SDS011;48849;48.758;9.158;2023-01-15T01:05:47;1.00;;;0.80;;
2211;SDS011;48849;48.758;9.158;2023-01-15T01:08:14;1.40;;;0.90;;
2211;SDS011;48849;48.758;9.158;2023-01-15T01:10:43;1.50;;;0.80;;
2211;SDS011;48849;48.758;9.158;2023-01-15T01:13:11;1.10;;;1.00;;
2211;SDS011;48849;48.758;9.158;2023-01-15T01:15:37;1.45;;;0.88;;
2211;SDS011;48849;48.758;9.158;2023-01-15T01:18:04;0.80;;;0.80;;
2211;SDS011;48849;48.758;9.158;2023-01-15T01:20:32;0.63;;;0.63;;
2211;SDS011;48849;48.758;9.158;2023-01-15T01:22:59;2.05;;;0.63;;
2211;SDS011;48849;48.758;9.158;2023-01-15T01:25:25;1.23;;;0.90;;
2211;SDS011;48849;48.758;9.158;2023-01-15T01:27:53;1.20;;;0.75;;
2211;SDS011;48849;48.758;9.158;2023-01-15T01:30:20;1.05;;;0.70;;
2211;SDS011;48849;48.758;9.158;2023-01-15T01:32:46;1.15;;;0.82;;
2211;SDS011;48849;48.758;9.158;2023-01-15T01:35:13;0.85;;;0.77;;
2211;SDS011;48849;48.758;9.158;2023-01-15T01:37:40;0.57;;;0.57;;
2211;SDS011;48849;48.758;9.158;2023-01-15T01:40:07;0.70;;;0.70;;
2211;SDS011;48849;48.758;9.158;2023-01-15T01:42:35;0.70;;;0.68;;
2211;SDS011;48849;48.758;9.158;2023-01-15T01:45:05;1.25;;;1.00;;
2211;SDS011;48849;48.758;9.158;2023-01-15T01:47:37;1.80;;;1.02;;
2211;SDS011;48849;48.758;9.158;2023-01-15T01:50:06;1.25;;;0.90;;
2211;SDS011;48849;48.758;9.158;2023-01-15T01:52:36;1.52;;;0.98;;
2211;SDS011;48849;48.758;9.158;2023-01-15T01:55:07;0.77;;;0.70;;
2211;SDS011;48849;48.758;9.158;2023-01-15T01:57:35;0.95;;;0.90;;
2211;SDS011;48849;48.758;9.158;2023-01-15T02:00:05;3.10;;;0.90;;
2211;SDS011;48849;48.758;9.158;2023-01-15T02:02:35;1.20;;;1.10;;
2211;SDS011;48849;48.758;9.158;2023-01-15T02:05:02;1.15;;;0.80;;
2211;SDS011;48849;48.758;9.158;2023-01-15T02:07:30;1.00;;;0.90;;
2211;SDS011;48849;48.758;9.158;2023-01-15T02:09:59;1.80;;;0.80;;
2211;SDS011;48849;48.758;9.158;2023-01-15T02:12:27;0.90;;;0.80;;
2211;SDS011;48849;48.758;9.158;2023-01-15T02:15:01;0.70;;;0.70;;
2211;SDS011;48849;48.758;9.158;2023-01-15T02:17:33;1.02;;;0.90;;
2211;SDS011;48849;48.758;9.158;2023-01-15T02:20:09;0.75;;;0.70;;
2211;SDS011;48849;48.758;9.158;2023-01-15T02:22:49;0.95;;;0.77;;
2211;SDS011;48849;48.758;9.158;2023-01-15T02:25:23;3.20;;;0.85;;
2211;SDS011;48849;48.758;9.158;2023-01-15T02:28:00;1.10;;;0.70;;
2211;SDS011;48849;48.758;9.158;2023-01-15T02:30:33;0.70;;;0.70;;
2211;SDS011;48849;48.758;9.158;2023-01-15T02:33:06;0.98;;;0.70;;
2211;SDS011;48849;48.758;9.158;2023-01-15T02:35:37;0.55;;;0.55;;
2211;SDS011;48849;48.758;9.158;2023-01-15T02:38:09;0.70;;;0.68;;
2211;SDS011;48849;48.758;9.158;2023-01-15T02:40:40;0.80;;;0.70;;
2211;SDS011;48849;48.758;9.158;2023-01-15T02:43:10;0.70;;;0.70;;
2211;SDS011;48849;48.758;9.158;2023-01-15T02:45:39;0.85;;;0.60;;
2211;SDS011;48849;48.758;9.158;2023-01-15T02:48:08;0.90;;;0.80;;
2211;SDS011;48849;48.758;9.158;2023-01-15T02:50:38;0.95;;;0.82;;
2211;SDS011;48849;48.758;9.158;2023-01-15T02:53:10;0.70;;;0.70;;
2211;SDS011;48849;48.758;9.158;2023-01-15T02:55:42;0.70;;;0.60;;
2211;SDS011;48849;48.758;9.158;2023-01-15T02:58:14;0.70;;;0.60;;
2211;SDS011;48849;48.758;9.158;2023-01-15T03:00:46;4.13;;;0.75;;
2211;SDS011;48849;48.758;9.158;2023-01-15T03:03:15;0.70;;;0.55;;
2211;SDS011;48849;48.758;9.158;2023-01-15T03:05:47;0.70;;;0.70;;
2211;SDS011;48849;48.758;9.158;2023-01-15T03:08:19;0.55;;;0.55;;
2211;SDS011;48849;48.758;9.158;2023-01-15T03:10:46;0.50;;;0.50;;
2211;SDS011;48849;48.758;9.158;2023-01-15T03:13:22;1.95;;;0.88;;
2211;SDS011;48849;48.758;9.158;2023-01-15T03:15:57;0.60;;;0.50;;
2211;SDS011;48849;48.758;9.158;2023-01-15T03:18:48;0.65;;;0.65;;
2211;SDS011;48849;48.758;9.158;2023-01-15T03:21:22;0.60;;;0.60;;
2211;SDS011;48849;48.758;9.158;2023-01-15T03:23:56;0.80;;;0.50;;
2211;SDS011;48849;48.758;9.158;2023-01-15T03:26:29;0.82;;;0.77;;
2211;SDS011;48849;48.758;9.158;2023-01-15T03:28:57;0.57;;;0.57;;
2211;SDS011;48849;48.758;9.158;2023-01-15T03:31:25;1.40;;;0.88;;
2211;SDS011;48849;48.758;9.158;2023-01-15T03:33:53;0.60;;;0.50;;
2211;SDS011;48849;48.758;9.158;2023-01-15T03:36:20;0.60;;;0.60;;
2211;SDS011;48849;48.758;9.158;2023-01-15T03:38:46;0.70;;;0.57;;
2211;SDS011;48849;48.758;9.158;2023-01-15T03:41:18;0.80;;;0.60;;
2211;SDS011;48849;48.758;9.158;2023-01-15T03:43:51;0.50;;;0.50;;
2211;SDS011;48849;48.758;9.158;2023-01-15T03:46:43;2.05;;;0.60;;
2211;SDS011;48849;48.758;9.158;2023-01-15T03:49:20;0.95;;;0.70;;
2211;SDS011;48849;48.758;9.158;2023-01-15T03:51:54;0.50;;;0.50;;
2211;SDS011;48849;48.758;9.158;2023-01-15T03:54:29;0.60;;;0.60;;
2211;SDS011;48849;48.758;9.158;2023-01-15T03:57:04;0.50;;;0.50;;
2211;SDS011;48849;48.758;9.158;2023-01-15T03:59:38;0.70;;;0.52;;
2211;SDS011;48849;48.758;9.158;2023-01-15T04:02:12;1.33;;;0.50;;
2211;SDS011;48849;48.758;9.158;2023-01-15T04:04:40;1.27;;;0.60;;
2211;SDS011;48849;48.758;9.158;2023-01-15T04:07:09;0.50;;;0.50;;
2211;SDS011;48849;48.758;9.158;2023-01-15T04:09:36;0.50;;;0.50;;
2211;SDS011;48849;48.758;9.158;2023-01-15T04:12:04;0.60;;;0.57;;
2211;SDS011;48849;48.758;9.158;2023-01-15T04:14:31;0.50;;;0.30;;
2211;SDS011;48849;48.758;9.158;2023-01-15T04:17:00;0.60;;;0.50;;
2211;SDS011;48849;48.758;9.158;2023-01-15T04:19:27;0.98;;;0.50;;
2211;SDS011;48849;48.758;9.158;2023-01-15T04:21:54;0.88;;;0.40;;
2211;SDS011;48849;48.758;9.158;2023-01-15T04:24:20;0.77;;;0.55;;
2211;SDS011;48849;48.758;9.158;2023-01-15T04:26:47;0.50;;;0.30;;
2211;SDS011;48849;48.758;9.158;2023-01-15T04:29:14;0.50;;;0.40;;
2211;SDS011;48849;48.758;9.158;2023-01-15T04:31:40;0.68;;;0.52;;
2211;SDS011;48849;48.758;9.158;2023-01-15T04:34:08;0.50;;;0.50;;
2211;SDS011;48849;48.758;9.158;2023-01-15T04:36:35;0.73;;;0.50;;
2211;SDS011;48849;48.758;9.158;2023-01-15T04:39:02;0.68;;;0.40;;
2211;SDS011;48849;48.758;9.158;2023-01-15T04:41:29;1.20;;;0.50;;
2211;SDS011;48849;48.758;9.158;2023-01-15T04:44:14;0.70;;;0.50;;
2211;SDS011;48849;48.758;9.158;2023-01-15T04:46:41;0.60;;;0.40;;
2211;SDS011;48849;48.758;9.158;2023-01-15T04:49:12;0.82;;;0.43;;
2211;SDS011;48849;48.758;9.158;2023-01-15T04:51:39;0.60;;;0.45;;
2211;SDS011;48849;48.758;9.158;2023-01-15T04:54:06;0.70;;;0.50;;
2211;SDS011;48849;48.758;9.158;2023-01-15T04:56:37;0.73;;;0.40;;
2211;SDS011;48849;48.758;9.158;2023-01-15T04:59:05;1.27;;;1.00;;
2211;SDS011;48849;48.758;9.158;2023-01-15T05:01:32;0.82;;;0.60;;
2211;SDS011;48849;48.758;9.158;2023-01-15T05:03:59;1.27;;;0.60;;
2211;SDS011;48849;48.758;9.158;2023-01-15T05:06:27;0.60;;;0.50;;
2211;SDS011;48849;48.758;9.158;2023-01-15T05:08:55;1.77;;;0.43;;
2211;SDS011;48849;48.758;9.158;2023-01-15T05:11:22;0.70;;;0.50;;
2211;SDS011;48849;48.758;9.158;2023-01-15T05:13:49;0.60;;;0.40;;
2211;SDS011;48849;48.758;9.158;2023-01-15T05:16:16;0.75;;;0.40;;
2211;SDS011;48849;48.758;9.158;2023-01-15T05:18:44;0.60;;;0.43;;
2211;SDS011;48849;48.758;9.158;2023-01-15T05:21:12;0.60;;;0.47;;
2211;SDS011;48849;48.758;9.158;2023-01-15T05:23:42;0.50;;;0.50;;
2211;SDS011;48849;48.758;9.158;2023-01-15T05:26:09;0.60;;;0.45;;
2211;SDS011;48849;48.758;9.158;2023-01-15T05:28:36;0.70;;;0.50;;
2211;SDS011;48849;48.758;9.158;2023-01-15T05:31:06;1.42;;;0.50;;
2211;SDS011;48849;48.758;9.158;2023-01-15T05:33:34;1.00;;;0.55;;
2211;SDS011;48849;48.758;9.158;2023-01-15T05:36:01;0.82;;;0.50;;
2211;SDS011;48849;48.758;9.158;2023-01-15T05:38:29;0.50;;;0.50;;
2211;SDS011;48849;48.758;9.158;2023-01-15T05:40:57;1.15;;;0.50;;
2211;SDS011;48849;48.758;9.158;2023-01-15T05:43:24;0.50;;;0.40;;
2211;SDS011;48849;48.758;9.158;2023-01-15T05:45:50;0.50;;;0.32;;
2211;SDS011;48849;48.758;9.158;2023-01-15T05:48:17;0.50;;;0.40;;
2211;SDS011;48849;48.758;9.158;2023-01-15T05:50:44;0.45;;;0.38;;
2211;SDS011;48849;48.758;9.158;2023-01-15T05:53:10;0.40;;;0.40;;
2211;SDS011;48849;48.758;9.158;2023-01-15T05:55:37;0.60;;;0.40;;
2211;SDS011;48849;48.758;9.158;2023-01-15T05:58:05;0.40;;;0.40;;
2211;SDS011;48849;48.758;9.158;2023-01-15T06:00:32;0.40;;;0.40;;
2211;SDS011;48849;48.758;9.158;2023-01-15T06:02:58;0.93;;;0.50;;
2211;SDS011;48849;48.758;9.158;2023-01-15T06:05:25;0.40;;;0.30;;
2211;SDS011;48849;48.758;9.158;2023-01-15T06:07:52;0.40;;;0.40;;
2211;SDS011;48849;48.758;9.158;2023-01-15T06:10:18;0.40;;;0.40;;
2211;SDS011;48849;48.758;9.158;2023-01-15T06:12:45;0.40;;;0.40;;
2211;SDS011;48849;48.758;9.158;2023-01-15T06:15:13;0.40;;;0.40;;
2211;SDS011;48849;48.758;9.158;2023-01-15T06:17:40;0.40;;;0.40;;
2211;SDS011;48849;48.758;9.158;2023-01-15T06:20:07;0.50;;;0.40;;
2211;SDS011;48849;48.758;9.158;2023-01-15T06:22:35;0.50;;;0.50;;
2211;SDS011;48849;48.758;9.158;2023-01-15T06:25:03;0.40;;;0.40;;
2211;SDS011;48849;48.758;9.158;2023-01-15T06:27:30;0.40;;;0.40;;
2211;SDS011;48849;48.758;9.158;2023-01-15T06:29:57;0.40;;;0.40;;
2211;SDS011;48849;48.758;9.158;2023-01-15T06:32:25;1.02;;;0.40;;
2211;SDS011;48849;48.758;9.158;2023-01-15T06:34:52;0.50;;;0.50;;
2211;SDS011;48849;48.758;9.158;2023-01-15T06:37:19;0.40;;;0.40;;
2211;SDS011;48849;48.758;9.158;2023-01-15T06:39:45;0.40;;;0.40;;
2211;SDS011;48849;48.758;9.158;2023-01-15T06:42:12;0.50;;;0.50;;
2211;SDS011;48849;48.758;9.158;2023-01-15T06:44:53;0.50;;;0.50;;
2211;SDS011;48849;48.758;9.158;2023-01-15T06:47:38;0.55;;;0.50;;
2211;SDS011;48849;48.758;9.158;2023-01-15T06:50:05;0.40;;;0.40;;
2211;SDS011;48849;48.758;9.158;2023-01-15T06:52:32;1.02;;;0.40;;
2211;SDS011;48849;48.758;9.158;2023-01-15T06:54:59;0.43;;;0.43;;
2211;SDS011;48849;48.758;9.158;2023-01-15T06:57:26;0.40;;;0.40;;
2211;SDS011;48849;48.758;9.158;2023-01-15T06:59:52;1.40;;;0.50;;
2211;SDS011;48849;48.758;9.158;2023-01-15T07:02:19;0.40;;;0.40;;
2211;SDS011;48849;48.758;9.158;2023-01-15T07:04:47;0.47;;;0.47;;
2211;SDS011;48849;48.758;9.158;2023-01-15T07:07:14;0.50;;;0.50;;
2211;SDS011;48849;48.758;9.158;2023-01-15T07:09:42;0.40;;;0.40;;
2211;SDS011;48849;48.758;9.158;2023-01-15T07:12:08;0.50;;;0.50;;
2211;SDS011;48849;48.758;9.158;2023-01-15T07:14:35;0.50;;;0.50;;
2211;SDS011;48849;48.758;9.158;2023-01-15T07:17:02;0.50;;;0.50;;
2211;SDS011;48849;48.758;9.158;2023-01-15T07:19:29;0.50;;;0.50;;
2211;SDS011;48849;48.758;9.158;2023-01-15T07:21:57;0.50;;;0.50;;
2211;SDS011;48849;48.758;9.158;2023-01-15T07:24:24;0.50;;;0.50;;
2211;SDS011;48849;48.758;9.158;2023-01-15T07:26:51;0.50;;;0.40;;
2211;SDS011;48849;48.758;9.158;2023-01-15T07:29:21;0.50;;;0.50;;
2211;SDS011;48849;48.758;9.158;2023-01-15T07:31:48;0.50;;;0.50;;
2211;SDS011;48849;48.758;9.158;2023-01-15T07:34:15;1.13;;;0.40;;
2211;SDS011;48849;48.758;9.158;2023-01-15T07:36:41;0.85;;;0.50;;
2211;SDS011;48849;48.758;9.158;2023-01-15T07:39:10;0.50;;;0.50;;
2211;SDS011;48849;48.758;9.158;2023-01-15T07:41:37;0.40;;;0.40;;
2211;SDS011;48849;48.758;9.158;2023-01-15T07:44:22;1.95;;;0.50;;
2211;SDS011;48849;48.758;9.158;2023-01-15T07:47:08;0.55;;;0.55;;
2211;SDS011;48849;48.758;9.158;2023-01-15T07:49:59;0.50;;;0.40;;
2211;SDS011;48849;48.758;9.158;2023-01-15T07:52:26;0.50;;;0.50;;
2211;SDS011;48849;48.758;9.158;2023-01-15T07:54:54;0.77;;;0.50;;
2211;SDS011;48849;48.758;9.158;2023-01-15T07:57:21;0.40;;;0.40;;
2211;SDS011;48849;48.758;9.158;2023-01-15T07:59:48;0.60;;;0.60;;
2211;SDS011;48849;48.758;9.158;2023-01-15T08:02:15;0.50;;;0.30;;
2211;SDS011;48849;48.758;9.158;2023-01-15T08:04:42;0.40;;;0.40;;
2211;SDS011;48849;48.758;9.158;2023-01-15T08:07:09;0.50;;;0.47;;
2211;SDS011;48849;48.758;9.158;2023-01-15T08:09:36;0.50;;;0.50;;
2211;SDS011;48849;48.758;9.158;2023-01-15T08:12:05;0.80;;;0.80;;
2211;SDS011;48849;48.758;9.158;2023-01-15T08:14:49;0.60;;;0.60;;
2211;SDS011;48849;48.758;9.158;2023-01-15T08:17:33;0.60;;;0.60;;
2211;SDS011;48849;48.758;9.158;2023-01-15T08:20:01;0.63;;;0.55;;
2211;SDS011;48849;48.758;9.158;2023-01-15T08:22:29;0.63;;;0.63;;
2211;SDS011;48849;48.758;9.158;2023-01-15T08:24:56;0.77;;;0.77;;
2211;SDS011;48849;48.758;9.158;2023-01-15T08:27:24;0.50;;;0.50;;
2211;SDS011;48849;48.758;9.158;2023-01-15T08:29:51;1.13;;;0.60;;
2211;SDS011;48849;48.758;9.158;2023-01-15T08:32:18;0.50;;;0.43;;
2211;SDS011;48849;48.758;9.158;2023-01-15T08:34:44;0.50;;;0.40;;
2211;SDS011;48849;48.758;9.158;2023-01-15T08:37:11;2.20;;;2.00;;
2211;SDS011;48849;48.758;9.158;2023-01-15T08:39:38;0.90;;;0.73;;
2211;SDS011;48849;48.758;9.158;2023-01-15T08:42:04;0.50;;;0.50;;
2211;SDS011;48849;48.758;9.158;2023-01-15T08:44:32;1.63;;;0.52;;
2211;SDS011;48849;48.758;9.158;2023-01-15T08:46:59;0.40;;;0.40;;
2211;SDS011;48849;48.758;9.158;2023-01-15T08:49:26;0.57;;;0.50;;
2211;SDS011;48849;48.758;9.158;2023-01-15T08:51:53;0.40;;;0.40;;
2211;SDS011;48849;48.758;9.158;2023-01-15T08:54:20;0.60;;;0.30;;
2211;SDS011;48849;48.758;9.158;2023-01-15T08:56:48;0.55;;;0.50;;
2211;SDS011;48849;48.758;9.158;2023-01-15T08:59:15;0.40;;;0.40;;
2211;SDS011;48849;48.758;9.158;2023-01-15T09:01:44;0.40;;;0.40;;
2211;SDS011;48849;48.758;9.158;2023-01-15T09:04:12;0.40;;;0.40;;
2211;SDS011;48849;48.758;9.158;2023-01-15T09:06:39;0.50;;;0.40;;
2211;SDS011;48849;48.758;9.158;2023-01-15T09:09:07;0.70;;;0.50;;
2211;SDS011;48849;48.758;9.158;2023-01-15T09:11:34;0.43;;;0.43;;
2211;SDS011;48849;48.758;9.158;2023-01-15T09:14:00;0.50;;;0.50;;
2211;SDS011;48849;48.758;9.158;2023-01-15T09:16:27;2.05;;;0.60;;
2211;SDS011;48849;48.758;9.158;2023-01-15T09:18:57;0.80;;;0.50;;
2211;SDS011;48849;48.758;9.158;2023-01-15T09:21:24;2.47;;;0.50;;
2211;SDS011;48849;48.758;9.158;2023-01-15T09:23:50;0.90;;;0.40;;
2211;SDS011;48849;48.758;9.158;2023-01-15T09:26:24;0.60;;;0.60;;
2211;SDS011;48849;48.758;9.158;2023-01-15T09:28:55;1.95;;;1.60;;
2211;SDS011;48849;48.758;9.158;2023-01-15T09:31:23;2.05;;;0.70;;
2211;SDS011;48849;48.758;9.158;2023-01-15T09:33:50;1.55;;;1.35;;
2211;SDS011;48849;48.758;9.158;2023-01-15T09:36:19;1.20;;;1.10;;
2211;SDS011;48849;48.758;9.158;2023-01-15T09:38:49;1.25;;;1.10;;
2211;SDS011;48849;48.758;9.158;2023-01-15T09:41:16;0.60;;;0.60;;
2211;SDS011;48849;48.758;9.158;2023-01-15T09:44:04;0.93;;;0.93;;
2211;SDS011;48849;48.758;9.158;2023-01-15T09:46:49;1.50;;;1.10;;
2211;SDS011;48849;48.758;9.158;2023-01-15T09:49:29;1.50;;;1.40;;
2211;SDS011;48849;48.758;9.158;2023-01-15T09:52:06;2.75;;;2.35;;
2211;SDS011;48849;48.758;9.158;2023-01-15T09:54:42;1.20;;;1.10;;
2211;SDS011;48849;48.758;9.158;2023-01-15T09:57:18;1.48;;;1.20;;
2211;SDS011;48849;48.758;9.158;2023-01-15T09:59:48;1.10;;;1.00;;
2211;SDS011;48849;48.758;9.158;2023-01-15T10:02:20;1.00;;;0.90;;
2211;SDS011;48849;48.758;9.158;2023-01-15T10:04:51;0.50;;;0.50;;
2211;SDS011;48849;48.758;9.158;2023-01-15T10:07:24;3.00;;;0.55;;
2211;SDS011;48849;48.758;9.158;2023-01-15T10:09:56;0.70;;;0.70;;
2211;SDS011;48849;48.758;9.158;2023-01-15T10:12:27;0.70;;;0.70;;
2211;SDS011;48849;48.758;9.158;2023-01-15T10:15:05;1.10;;;1.00;;
2211;SDS011;48849;48.758;9.158;2023-01-15T10:17:42;1.83;;;1.60;;
2211;SDS011;48849;48.758;9.158;2023-01-15T10:20:14;3.47;;;2.08;;
2211;SDS011;48849;48.758;9.158;2023-01-15T10:22:47;0.80;;;0.80;;
2211;SDS011;48849;48.758;9.158;2023-01-15T10:25:27;0.93;;;0.75;;
2211;SDS011;48849;48.758;9.158;2023-01-15T10:28:02;0.68;;;0.68;;
2211;SDS011;48849;48.758;9.158;2023-01-15T10:30:40;2.63;;;0.60;;
2211;SDS011;48849;48.758;9.158;2023-01-15T10:33:13;0.60;;;0.50;;
2211;SDS011;48849;48.758;9.158;2023-01-15T10:35:52;0.40;;;0.40;;
2211;SDS011;48849;48.758;9.158;2023-01-15T10:38:25;0.83;;;0.60;;
2211;SDS011;48849;48.758;9.158;2023-01-15T10:41:05;0.60;;;0.60;;
2211;SDS011;48849;48.758;9.158;2023-01-15T10:43:45;0.80;;;0.70;;
2211;SDS011;48849;48.758;9.158;2023-01-15T10:46:17;0.65;;;0.65;;
2211;SDS011;48849;48.758;9.158;2023-01-15T10:48:50;3.55;;;0.50;;
2211;SDS011;48849;48.758;9.158;2023-01-15T10:51:19;0.65;;;0.65;;
2211;SDS011;48849;48.758;9.158;2023-01-15T10:53:51;0.57;;;0.57;;
2211;SDS011;48849;48.758;9.158;2023-01-15T10:56:21;1.30;;;0.60;;
2211;SDS011;48849;48.758;9.158;2023-01-15T10:58:57;1.98;;;0.90;;
2211;SDS011;48849;48.758;9.158;2023-01-15T11:01:32;0.90;;;0.90;;
2211;SDS011;48849;48.758;9.158;2023-01-15T11:04:00;1.58;;;1.10;;
2211;SDS011;48849;48.758;9.158;2023-01-15T11:06:29;0.60;;;0.60;;
2211;SDS011;48849;48.758;9.158;2023-01-15T11:08:58;0.57;;;0.57;;
2211;SDS011;48849;48.758;9.158;2023-01-15T11:11:26;0.77;;;0.77;;
2211;SDS011;48849;48.758;9.158;2023-01-15T11:14:33;0.68;;;0.60;;
2211;SDS011;48849;48.758;9.158;2023-01-15T11:17:19;0.70;;;0.63;;
2211;SDS011;48849;48.758;9.158;2023-01-15T11:20:09;1.20;;;0.50;;
2211;SDS011;48849;48.758;9.158;2023-01-15T11:22:41;0.50;;;0.40;;
2211;SDS011;48849;48.758;9.158;2023-01-15T11:25:10;0.63;;;0.63;;
2211;SDS011;48849;48.758;9.158;2023-01-15T11:27:37;1.10;;;1.10;;
2211;SDS011;48849;48.758;9.158;2023-01-15T11:30:05;1.15;;;0.90;;
2211;SDS011;48849;48.758;9.158;2023-01-15T11:32:53;0.93;;;0.77;;
2211;SDS011;48849;48.758;9.158;2023-01-15T11:35:20;0.50;;;0.50;;
2211;SDS011;48849;48.758;9.158;2023-01-15T11:37:47;0.55;;;0.55;;
2211;SDS011;48849;48.758;9.158;2023-01-15T11:40:16;0.60;;;0.60;;
2211;SDS011;48849;48.758;9.158;2023-01-15T11:42:44;0.55;;;0.55;;
2211;SDS011;48849;48.758;9.158;2023-01-15T11:45:29;1.02;;;0.80;;
2211;SDS011;48849;48.758;9.158;2023-01-15T11:48:14;0.80;;;0.80;;
2211;SDS011;48849;48.758;9.158;2023-01-15T11:51:01;0.60;;;0.60;;
2211;SDS011;48849;48.758;9.158;2023-01-15T11:53:32;2.17;;;1.70;;
2211;SDS011;48849;48.758;9.158;2023-01-15T11:56:07;3.33;;;1.77;;
2211;SDS011;48849;48.758;9.158;2023-01-15T11:58:38;2.53;;;1.90;;
2211;SDS011;48849;48.758;9.158;2023-01-15T12:01:08;2.25;;;1.77;;
2211;SDS011;48849;48.758;9.158;2023-01-15T12:03:39;0.60;;;0.60;;
2211;SDS011;48849;48.758;9.158;2023-01-15T12:06:07;0.80;;;0.80;;
2211;SDS011;48849;48.758;9.158;2023-01-15T12:08:47;0.40;;;0.40;;
2211;SDS011;48849;48.758;9.158;2023-01-15T12:11:24;0.50;;;0.50;;
2211;SDS011;48849;48.758;9.158;2023-01-15T12:14:29;0.40;;;0.30;;
2211;SDS011;48849;48.758;9.158;2023-01-15T12:17:12;0.50;;;0.50;;
2211;SDS011;48849;48.758;9.158;2023-01-15T12:19:51;0.80;;;0.70;;
2211;SDS011;48849;48.758;9.158;2023-01-15T12:22:30;0.50;;;0.50;;
2211;SDS011;48849;48.758;9.158;2023-01-15T12:25:17;0.63;;;0.63;;
2211;SDS011;48849;48.758;9.158;2023-01-15T12:28:01;0.50;;;0.50;;
2211;SDS011;48849;48.758;9.158;2023-01-15T12:30:35;0.40;;;0.40;;
2211;SDS011;48849;48.758;9.158;2023-01-15T12:33:10;0.70;;;0.70;;
2211;SDS011;48849;48.758;9.158;2023-01-15T12:35:45;0.60;;;0.50;;
2211;SDS011;48849;48.758;9.158;2023-01-15T12:38:21;2.28;;;0.60;;
2211;SDS011;48849;48.758;9.158;2023-01-15T12:40:58;2.03;;;0.85;;
2211;SDS011;48849;48.758;9.158;2023-01-15T12:43:32;1.25;;;0.70;;
2211;SDS011;48849;48.758;9.158;2023-01-15T12:46:17;0.50;;;0.50;;
2211;SDS011;48849;48.758;9.158;2023-01-15T12:48:48;0.80;;;0.70;;
2211;SDS011;48849;48.758;9.158;2023-01-15T12:51:19;0.85;;;0.85;;
2211;SDS011;48849;48.758;9.158;2023-01-15T12:53:53;2.15;;;1.00;;
2211;SDS011;48849;48.758;9.158;2023-01-15T12:56:25;1.30;;;0.80;;
2211;SDS011;48849;48.758;9.158;2023-01-15T12:58:58;4.82;;;1.65;;
2211;SDS011;48849;48.758;9.158;2023-01-15T13:01:33;0.95;;;0.50;;
2211;SDS011;48849;48.758;9.158;2023-01-15T13:04:10;2.70;;;1.48;;
2211;SDS011;48849;48.758;9.158;2023-01-15T13:06:43;1.90;;;1.40;;
2211;SDS011;48849;48.758;9.158;2023-01-15T13:09:16;3.65;;;1.83;;
2211;SDS011;48849;48.758;9.158;2023-01-15T13:11:53;1.63;;;1.25;;
2211;SDS011;48849;48.758;9.158;2023-01-15T13:14:22;1.92;;;1.10;;
2211;SDS011;48849;48.758;9.158;2023-01-15T13:16:50;2.10;;;1.40;;
2211;SDS011;48849;48.758;9.158;2023-01-15T13:19:25;2.05;;;1.63;;
2211;SDS011;48849;48.758;9.158;2023-01-15T13:22:00;1.25;;;1.00;;
2211;SDS011;48849;48.758;9.158;2023-01-15T13:24:36;1.17;;;1.05;;
2211;SDS011;48849;48.758;9.158;2023-01-15T13:27:28;1.33;;;1.23;;
2211;SDS011;48849;48.758;9.158;2023-01-15T13:30:07;1.17;;;0.90;;
2211;SDS011;48849;48.758;9.158;2023-01-15T13:32:43;1.00;;;0.90;;
2211;SDS011;48849;48.758;9.158;2023-01-15T13:35:14;1.08;;;1.05;;
2211;SDS011;48849;48.758;9.158;2023-01-15T13:37:50;1.23;;;1.05;;
2211;SDS011;48849;48.758;9.158;2023-01-15T13:40:21;2.85;;;0.90;;
2211;SDS011;48849;48.758;9.158;2023-01-15T13:42:52;2.83;;;1.55;;
2211;SDS011;48849;48.758;9.158;2023-01-15T13:45:22;2.00;;;1.33;;
2211;SDS011;48849;48.758;9.158;2023-01-15T13:48:01;1.45;;;1.17;;
2211;SDS011;48849;48.758;9.158;2023-01-15T13:50:31;3.30;;;2.00;;
2211;SDS011;48849;48.758;9.158;2023-01-15T13:53:05;1.00;;;0.82;;
2211;SDS011;48849;48.758;9.158;2023-01-15T13:55:40;3.83;;;1.10;;
2211;SDS011;48849;48.758;9.158;2023-01-15T13:58:15;3.90;;;1.90;;
2211;SDS011;48849;48.758;9.158;2023-01-15T14:00:46;10.65;;;5.25;;
2211;SDS011;48849;48.758;9.158;2023-01-15T14:03:23;10.50;;;4.50;;
2211;SDS011;48849;48.758;9.158;2023-01-15T14:05:53;4.80;;;3.22;;
2211;SDS011;48849;48.758;9.158;2023-01-15T14:08:22;4.53;;;2.80;;
2211;SDS011;48849;48.758;9.158;2023-01-15T14:10:52;2.80;;;1.90;;
2211;SDS011;48849;48.758;9.158;2023-01-15T14:13:38;14.48;;;7.43;;
2211;SDS011;48849;48.758;9.158;2023-01-15T14:16:31;6.85;;;4.10;;
2211;SDS011;48849;48.758;9.158;2023-01-15T14:19:11;3.58;;;2.20;;
2211;SDS011;48849;48.758;9.158;2023-01-15T14:22:00;2.03;;;1.40;;
2211;SDS011;48849;48.758;9.158;2023-01-15T14:24:49;2.78;;;1.90;;
2211;SDS011;48849;48.758;9.158;2023-01-15T14:27:40;5.20;;;1.95;;
2211;SDS011;48849;48.758;9.158;2023-01-15T14:30:28;4.82;;;1.75;;
2211;SDS011;48849;48.758;9.158;2023-01-15T14:33:10;1.40;;;1.05;;
2211;SDS011;48849;48.758;9.158;2023-01-15T14:35:47;3.30;;;1.33;;
2211;SDS011;48849;48.758;9.158;2023-01-15T14:38:15;0.88;;;0.80;;
2211;SDS011;48849;48.758;9.158;2023-01-15T14:40:51;0.80;;;0.75;;
2211;SDS011;48849;48.758;9.158;2023-01-15T14:43:23;1.23;;;0.80;;
2211;SDS011;48849;48.758;9.158;2023-01-15T14:45:51;1.63;;;1.00;;
2211;SDS011;48849;48.758;9.158;2023-01-15T14:48:20;1.00;;;0.90;;
2211;SDS011;48849;48.758;9.158;2023-01-15T14:51:06;4.00;;;1.15;;
2211;SDS011;48849;48.758;9.158;2023-01-15T14:53:36;3.72;;;0.85;;
2211;SDS011;48849;48.758;9.158;2023-01-15T14:56:10;1.25;;;0.90;;
2211;SDS011;48849;48.758;9.158;2023-01-15T14:58:48;1.98;;;1.10;;
2211;SDS011;48849;48.758;9.158;2023-01-15T15:01:24;1.75;;;1.05;;
2211;SDS011;48849;48.758;9.158;2023-01-15T15:04:00;4.65;;;1.15;;
2211;SDS011;48849;48.758;9.158;2023-01-15T15:06:34;1.95;;;1.00;;
2211;SDS011;48849;48.758;9.158;2023-01-15T15:09:08;0.95;;;0.85;;
2211;SDS011;48849;48.758;9.158;2023-01-15T15:11:40;2.33;;;1.27;;
2211;SDS011;48849;48.758;9.158;2023-01-15T15:14:29;2.70;;;1.45;;
2211;SDS011;48849;48.758;9.158;2023-01-15T15:17:01;2.95;;;1.75;;
2211;SDS011;48849;48.758;9.158;2023-01-15T15:19:34;2.90;;;2.00;;
2211;SDS011;48849;48.758;9.158;2023-01-15T15:22:06;1.40;;;1.15;;
2211;SDS011;48849;48.758;9.158;2023-01-15T15:24:41;4.10;;;3.50;;
2211;SDS011;48849;48.758;9.158;2023-01-15T15:27:15;3.38;;;2.17;;